sensor_id;sensor_type;location;lat;lon;timestamp;P1;durP1;ratioP1;P2;durP2;ratioP2
23737;SDS011;12049;51.068;3.688;2022-12-15T00:02:00;56.90;;;35.85;;
23737;SDS011;12049;51.068;3.688;2022-12-15T00:04:44;50.90;;;32.78;;
23737;SDS011;12049;51.068;3.688;2022-12-15T00:07:28;54.00;;;33.60;;
23737;SDS011;12049;51.068;3.688;2022-12-15T00:10:12;56.35;;;34.33;;
23737;SDS011;12049;51.068;3.688;2022-12-15T00:12:56;55.58;;;34.28;;
23737;SDS011;12049;51.068;3.688;2022-12-15T00:15:40;52.85;;;34.17;;
23737;SDS011;12049;51.068;3.688;2022-12-15T00:18:24;51.88;;;32.78;;
23737;SDS011;12049;51.068;3.688;2022-12-15T00:21:08;57.85;;;33.75;;
23737;SDS011;12049;51.068;3.688;2022-12-15T00:23:52;55.50;;;35.67;;
23737;SDS011;12049;51.068;3.688;2022-12-15T00:26:36;57.80;;;33.80;;
23737;SDS011;12049;51.068;3.688;2022-12-15T00:29:20;52.60;;;33.47;;
23737;SDS011;12049;51.068;3.688;2022-12-15T00:32:04;59.85;;;34.42;;
23737;SDS011;12049;51.068;3.688;2022-12-15T00:34:48;53.42;;;33.95;;
23737;SDS011;12049;51.068;3.688;2022-12-15T00:37:32;55.80;;;34.30;;
23737;SDS011;12049;51.068;3.688;2022-12-15T00:40:16;54.92;;;34.50;;
23737;SDS011;12049;51.068;3.688;2022-12-15T00:42:42;56.50;;;35.88;;
23737;SDS011;12049;51.068;3.688;2022-12-15T00:45:07;57.60;;;34.65;;
23737;SDS011;12049;51.068;3.688;2022-12-15T00:47:33;60.53;;;36.45;;
23737;SDS011;12049;51.068;3.688;2022-12-15T00:49:59;57.17;;;35.38;;
23737;SDS011;12049;51.068;3.688;2022-12-15T00:52:43;60.97;;;37.13;;
23737;SDS011;12049;51.068;3.688;2022-12-15T00:55:27;56.65;;;35.25;;
23737;SDS011;12049;51.068;3.688;2022-12-15T00:58:11;55.08;;;34.03;;
23737;SDS011;12049;51.068;3.688;2022-12-15T01:00:55;55.17;;;33.70;;
23737;SDS011;12049;51.068;3.688;2022-12-15T01:03:39;50.88;;;32.83;;
23737;SDS011;12049;51.068;3.688;2022-12-15T01:06:24;55.58;;;33.83;;
23737;SDS011;12049;51.068;3.688;2022-12-15T01:09:09;57.08;;;34.33;;
23737;SDS011;12049;51.068;3.688;2022-12-15T01:11:55;55.25;;;34.53;;
23737;SDS011;12049;51.068;3.688;2022-12-15T01:14:39;60.13;;;36.67;;
23737;SDS011;12049;51.068;3.688;2022-12-15T01:17:23;59.22;;;35.95;;
23737;SDS011;12049;51.068;3.688;2022-12-15T01:20:07;58.90;;;36.63;;
23737;SDS011;12049;51.068;3.688;2022-12-15T01:22:52;56.53;;;33.92;;
23737;SDS011;12049;51.068;3.688;2022-12-15T01:25:19;62.60;;;34.90;;
23737;SDS011;12049;51.068;3.688;2022-12-15T01:27:47;59.00;;;34.28;;
23737;SDS011;12049;51.068;3.688;2022-12-15T01:30:14;57.03;;;35.47;;
23737;SDS011;12049;51.068;3.688;2022-12-15T01:32:41;57.40;;;35.70;;
23737;SDS011;12049;51.068;3.688;2022-12-15T01:35:07;61.97;;;36.50;;
23737;SDS011;12049;51.068;3.688;2022-12-15T01:37:34;59.03;;;36.65;;
23737;SDS011;12049;51.068;3.688;2022-12-15T01:40:03;61.70;;;37.13;;
23737;SDS011;12049;51.068;3.688;2022-12-15T01:42:49;58.97;;;35.08;;
23737;SDS011;12049;51.068;3.688;2022-12-15T01:48:01;62.58;;;36.70;;
23737;SDS011;12049;51.068;3.688;2022-12-15T01:50:32;63.20;;;36.83;;
23737;SDS011;12049;51.068;3.688;2022-12-15T01:53:03;62.17;;;37.60;;
23737;SDS011;12049;51.068;3.688;2022-12-15T01:55:29;60.80;;;36.65;;
23737;SDS011;12049;51.068;3.688;2022-12-15T01:57:56;57.92;;;34.97;;
23737;SDS011;12049;51.068;3.688;2022-12-15T02:00:29;63.03;;;36.40;;
23737;SDS011;12049;51.068;3.688;2022-12-15T02:02:55;56.88;;;35.58;;
23737;SDS011;12049;51.068;3.688;2022-12-15T02:05:22;55.08;;;34.50;;
23737;SDS011;12049;51.068;3.688;2022-12-15T02:07:48;54.22;;;35.63;;
23737;SDS011;12049;51.068;3.688;2022-12-15T02:10:14;58.03;;;36.00;;
23737;SDS011;12049;51.068;3.688;2022-12-15T02:12:57;55.15;;;35.65;;
23737;SDS011;12049;51.068;3.688;2022-12-15T02:15:52;59.90;;;35.60;;
23737;SDS011;12049;51.068;3.688;2022-12-15T02:18:39;62.50;;;35.28;;
23737;SDS011;12049;51.068;3.688;2022-12-15T02:21:28;62.72;;;36.08;;
23737;SDS011;12049;51.068;3.688;2022-12-15T02:32:18;63.95;;;36.50;;
23737;SDS011;12049;51.068;3.688;2022-12-15T02:34:53;58.58;;;35.83;;
23737;SDS011;12049;51.068;3.688;2022-12-15T02:37:25;61.38;;;36.00;;
23737;SDS011;12049;51.068;3.688;2022-12-15T02:39:55;57.95;;;35.78;;
23737;SDS011;12049;51.068;3.688;2022-12-15T02:42:21;62.45;;;36.40;;
23737;SDS011;12049;51.068;3.688;2022-12-15T02:44:52;62.30;;;37.80;;
23737;SDS011;12049;51.068;3.688;2022-12-15T02:58:07;58.20;;;35.17;;
23737;SDS011;12049;51.068;3.688;2022-12-15T03:00:59;60.53;;;35.40;;
23737;SDS011;12049;51.068;3.688;2022-12-15T03:03:32;63.05;;;36.35;;
23737;SDS011;12049;51.068;3.688;2022-12-15T03:05:59;60.03;;;34.70;;
23737;SDS011;12049;51.068;3.688;2022-12-15T03:08:26;59.50;;;36.42;;
23737;SDS011;12049;51.068;3.688;2022-12-15T03:10:53;60.97;;;34.42;;
23737;SDS011;12049;51.068;3.688;2022-12-15T03:13:19;59.08;;;34.25;;
23737;SDS011;12049;51.068;3.688;2022-12-15T03:15:45;55.45;;;35.00;;
23737;SDS011;12049;51.068;3.688;2022-12-15T03:18:11;56.58;;;35.17;;
23737;SDS011;12049;51.068;3.688;2022-12-15T03:20:36;58.20;;;33.60;;
23737;SDS011;12049;51.068;3.688;2022-12-15T03:23:02;57.95;;;34.28;;
23737;SDS011;12049;51.068;3.688;2022-12-15T03:25:28;55.92;;;34.33;;
23737;SDS011;12049;51.068;3.688;2022-12-15T03:27:54;54.90;;;34.45;;
23737;SDS011;12049;51.068;3.688;2022-12-15T03:30:19;52.83;;;33.95;;
23737;SDS011;12049;51.068;3.688;2022-12-15T03:32:45;56.72;;;32.85;;
23737;SDS011;12049;51.068;3.688;2022-12-15T03:35:11;57.28;;;32.65;;
23737;SDS011;12049;51.068;3.688;2022-12-15T03:37:37;51.95;;;32.10;;
23737;SDS011;12049;51.068;3.688;2022-12-15T03:40:04;52.50;;;32.83;;
23737;SDS011;12049;51.068;3.688;2022-12-15T03:42:30;53.80;;;32.80;;
23737;SDS011;12049;51.068;3.688;2022-12-15T03:45:32;55.28;;;32.00;;
23737;SDS011;12049;51.068;3.688;2022-12-15T03:47:57;57.60;;;32.15;;
23737;SDS011;12049;51.068;3.688;2022-12-15T03:50:25;53.42;;;32.05;;
23737;SDS011;12049;51.068;3.688;2022-12-15T03:52:56;51.38;;;31.77;;
23737;SDS011;12049;51.068;3.688;2022-12-15T03:55:23;60.83;;;31.48;;
23737;SDS011;12049;51.068;3.688;2022-12-15T03:57:50;51.40;;;31.08;;
23737;SDS011;12049;51.068;3.688;2022-12-15T04:00:16;53.95;;;31.65;;
23737;SDS011;12049;51.068;3.688;2022-12-15T04:02:43;53.63;;;31.58;;
23737;SDS011;12049;51.068;3.688;2022-12-15T04:05:16;47.72;;;31.10;;
23737;SDS011;12049;51.068;3.688;2022-12-15T04:07:44;53.60;;;32.15;;
23737;SDS011;12049;51.068;3.688;2022-12-15T04:10:10;52.88;;;31.58;;
23737;SDS011;12049;51.068;3.688;2022-12-15T04:12:36;49.75;;;31.08;;
23737;SDS011;12049;51.068;3.688;2022-12-15T04:15:04;50.13;;;31.25;;
23737;SDS011;12049;51.068;3.688;2022-12-15T04:17:31;48.25;;;30.55;;
23737;SDS011;12049;51.068;3.688;2022-12-15T04:19:57;51.60;;;31.45;;
23737;SDS011;12049;51.068;3.688;2022-12-15T04:22:38;50.42;;;29.50;;
23737;SDS011;12049;51.068;3.688;2022-12-15T04:25:06;57.58;;;32.75;;
23737;SDS011;12049;51.068;3.688;2022-12-15T04:27:51;54.80;;;32.20;;
23737;SDS011;12049;51.068;3.688;2022-12-15T04:30:36;53.45;;;31.25;;
23737;SDS011;12049;51.068;3.688;2022-12-15T04:33:22;50.47;;;30.70;;
23737;SDS011;12049;51.068;3.688;2022-12-15T04:36:07;53.38;;;30.65;;
23737;SDS011;12049;51.068;3.688;2022-12-15T04:38:54;61.00;;;31.02;;
23737;SDS011;12049;51.068;3.688;2022-12-15T04:41:40;46.53;;;29.35;;
23737;SDS011;12049;51.068;3.688;2022-12-15T04:44:24;49.03;;;30.00;;
23737;SDS011;12049;51.068;3.688;2022-12-15T04:47:08;51.00;;;31.25;;
23737;SDS011;12049;51.068;3.688;2022-12-15T04:49:52;49.47;;;29.58;;
23737;SDS011;12049;51.068;3.688;2022-12-15T04:52:36;50.30;;;29.40;;
23737;SDS011;12049;51.068;3.688;2022-12-15T04:55:20;52.70;;;29.83;;
23737;SDS011;12049;51.068;3.688;2022-12-15T04:58:05;48.92;;;29.70;;
23737;SDS011;12049;51.068;3.688;2022-12-15T05:00:50;52.25;;;30.27;;
23737;SDS011;12049;51.068;3.688;2022-12-15T05:03:35;47.45;;;30.00;;
23737;SDS011;12049;51.068;3.688;2022-12-15T05:06:20;50.97;;;29.60;;
23737;SDS011;12049;51.068;3.688;2022-12-15T05:09:04;53.70;;;30.20;;
23737;SDS011;12049;51.068;3.688;2022-12-15T05:11:48;47.28;;;29.42;;
23737;SDS011;12049;51.068;3.688;2022-12-15T05:14:32;48.85;;;30.58;;
23737;SDS011;12049;51.068;3.688;2022-12-15T05:17:16;50.63;;;29.48;;
23737;SDS011;12049;51.068;3.688;2022-12-15T05:20:01;51.03;;;28.90;;
23737;SDS011;12049;51.068;3.688;2022-12-15T05:22:45;45.85;;;27.75;;
23737;SDS011;12049;51.068;3.688;2022-12-15T05:25:35;49.00;;;28.80;;
23737;SDS011;12049;51.068;3.688;2022-12-15T05:28:19;47.92;;;27.90;;
23737;SDS011;12049;51.068;3.688;2022-12-15T05:31:04;47.70;;;27.60;;
23737;SDS011;12049;51.068;3.688;2022-12-15T05:33:49;49.00;;;30.42;;
23737;SDS011;12049;51.068;3.688;2022-12-15T05:36:15;49.88;;;29.27;;
23737;SDS011;12049;51.068;3.688;2022-12-15T05:38:40;48.42;;;28.42;;
23737;SDS011;12049;51.068;3.688;2022-12-15T05:41:06;47.90;;;28.63;;
23737;SDS011;12049;51.068;3.688;2022-12-15T05:43:32;45.35;;;27.70;;
23737;SDS011;12049;51.068;3.688;2022-12-15T05:46:01;49.33;;;28.58;;
23737;SDS011;12049;51.068;3.688;2022-12-15T05:48:28;48.55;;;28.90;;
23737;SDS011;12049;51.068;3.688;2022-12-15T05:50:53;50.25;;;29.50;;
23737;SDS011;12049;51.068;3.688;2022-12-15T05:53:19;50.15;;;29.83;;
23737;SDS011;12049;51.068;3.688;2022-12-15T05:55:45;49.17;;;28.75;;
23737;SDS011;12049;51.068;3.688;2022-12-15T05:58:10;51.40;;;29.52;;
23737;SDS011;12049;51.068;3.688;2022-12-15T06:00:36;46.22;;;27.52;;
23737;SDS011;12049;51.068;3.688;2022-12-15T06:03:01;44.55;;;28.25;;
23737;SDS011;12049;51.068;3.688;2022-12-15T06:05:27;49.65;;;28.77;;
23737;SDS011;12049;51.068;3.688;2022-12-15T06:07:53;47.67;;;28.20;;
23737;SDS011;12049;51.068;3.688;2022-12-15T06:10:19;48.10;;;27.63;;
23737;SDS011;12049;51.068;3.688;2022-12-15T06:12:44;45.55;;;29.10;;
23737;SDS011;12049;51.068;3.688;2022-12-15T06:15:10;50.47;;;30.38;;
23737;SDS011;12049;51.068;3.688;2022-12-15T06:17:36;47.55;;;29.58;;
23737;SDS011;12049;51.068;3.688;2022-12-15T06:20:01;50.58;;;29.00;;
23737;SDS011;12049;51.068;3.688;2022-12-15T06:22:28;45.03;;;28.27;;
23737;SDS011;12049;51.068;3.688;2022-12-15T06:24:53;48.03;;;28.15;;
23737;SDS011;12049;51.068;3.688;2022-12-15T06:27:19;47.33;;;28.63;;
23737;SDS011;12049;51.068;3.688;2022-12-15T06:29:45;50.15;;;29.55;;
23737;SDS011;12049;51.068;3.688;2022-12-15T06:32:10;44.78;;;27.90;;
23737;SDS011;12049;51.068;3.688;2022-12-15T06:34:36;46.22;;;27.92;;
23737;SDS011;12049;51.068;3.688;2022-12-15T06:37:02;47.85;;;27.85;;
23737;SDS011;12049;51.068;3.688;2022-12-15T06:39:28;47.55;;;29.67;;
23737;SDS011;12049;51.068;3.688;2022-12-15T06:41:54;46.15;;;28.10;;
23737;SDS011;12049;51.068;3.688;2022-12-15T06:44:19;50.67;;;28.00;;
23737;SDS011;12049;51.068;3.688;2022-12-15T06:46:45;49.78;;;28.33;;
23737;SDS011;12049;51.068;3.688;2022-12-15T06:49:11;46.97;;;27.80;;
23737;SDS011;12049;51.068;3.688;2022-12-15T06:51:37;48.63;;;28.58;;
23737;SDS011;12049;51.068;3.688;2022-12-15T06:54:02;47.97;;;28.20;;
23737;SDS011;12049;51.068;3.688;2022-12-15T06:56:32;46.65;;;27.60;;
23737;SDS011;12049;51.068;3.688;2022-12-15T06:59:03;46.33;;;27.98;;
23737;SDS011;12049;51.068;3.688;2022-12-15T07:01:30;47.10;;;29.05;;
23737;SDS011;12049;51.068;3.688;2022-12-15T07:03:56;53.65;;;28.85;;
23737;SDS011;12049;51.068;3.688;2022-12-15T07:06:24;46.22;;;28.15;;
23737;SDS011;12049;51.068;3.688;2022-12-15T07:08:53;48.15;;;28.42;;
23737;SDS011;12049;51.068;3.688;2022-12-15T07:11:20;47.45;;;28.60;;
23737;SDS011;12049;51.068;3.688;2022-12-15T07:13:50;41.17;;;26.13;;
23737;SDS011;12049;51.068;3.688;2022-12-15T07:16:16;47.90;;;27.45;;
23737;SDS011;12049;51.068;3.688;2022-12-15T07:18:43;44.20;;;27.58;;
23737;SDS011;12049;51.068;3.688;2022-12-15T07:21:09;42.78;;;27.58;;
23737;SDS011;12049;51.068;3.688;2022-12-15T07:23:35;48.72;;;28.88;;
23737;SDS011;12049;51.068;3.688;2022-12-15T07:26:05;42.85;;;27.30;;
23737;SDS011;12049;51.068;3.688;2022-12-15T07:28:33;44.15;;;27.88;;
23737;SDS011;12049;51.068;3.688;2022-12-15T07:31:00;44.40;;;27.38;;
23737;SDS011;12049;51.068;3.688;2022-12-15T07:33:28;50.15;;;28.08;;
23737;SDS011;12049;51.068;3.688;2022-12-15T07:35:54;45.33;;;29.52;;
23737;SDS011;12049;51.068;3.688;2022-12-15T07:38:19;47.15;;;28.48;;
23737;SDS011;12049;51.068;3.688;2022-12-15T07:40:45;45.80;;;27.42;;
23737;SDS011;12049;51.068;3.688;2022-12-15T07:43:11;47.83;;;29.20;;
23737;SDS011;12049;51.068;3.688;2022-12-15T07:45:36;48.53;;;29.38;;
23737;SDS011;12049;51.068;3.688;2022-12-15T07:48:02;47.95;;;29.15;;
23737;SDS011;12049;51.068;3.688;2022-12-15T07:50:28;52.35;;;28.90;;
23737;SDS011;12049;51.068;3.688;2022-12-15T07:52:54;52.00;;;28.73;;
23737;SDS011;12049;51.068;3.688;2022-12-15T07:55:20;46.70;;;28.95;;
23737;SDS011;12049;51.068;3.688;2022-12-15T07:57:46;51.53;;;28.88;;
23737;SDS011;12049;51.068;3.688;2022-12-15T08:00:12;48.20;;;28.05;;
23737;SDS011;12049;51.068;3.688;2022-12-15T08:02:39;48.40;;;28.30;;
23737;SDS011;12049;51.068;3.688;2022-12-15T08:05:06;53.08;;;29.88;;
23737;SDS011;12049;51.068;3.688;2022-12-15T08:07:33;49.95;;;28.95;;
23737;SDS011;12049;51.068;3.688;2022-12-15T08:09:58;50.70;;;29.17;;
23737;SDS011;12049;51.068;3.688;2022-12-15T08:12:25;43.50;;;26.65;;
23737;SDS011;12049;51.068;3.688;2022-12-15T08:14:52;46.83;;;27.45;;
23737;SDS011;12049;51.068;3.688;2022-12-15T08:17:18;44.15;;;26.92;;
23737;SDS011;12049;51.068;3.688;2022-12-15T08:19:44;48.78;;;28.45;;
23737;SDS011;12049;51.068;3.688;2022-12-15T08:22:10;49.20;;;29.00;;
23737;SDS011;12049;51.068;3.688;2022-12-15T08:24:39;48.50;;;28.08;;
23737;SDS011;12049;51.068;3.688;2022-12-15T08:27:05;41.88;;;27.30;;
23737;SDS011;12049;51.068;3.688;2022-12-15T08:29:32;49.90;;;27.42;;
23737;SDS011;12049;51.068;3.688;2022-12-15T08:31:58;45.47;;;27.88;;
23737;SDS011;12049;51.068;3.688;2022-12-15T08:34:24;47.45;;;27.65;;
23737;SDS011;12049;51.068;3.688;2022-12-15T08:36:50;45.97;;;28.25;;
23737;SDS011;12049;51.068;3.688;2022-12-15T08:39:15;46.72;;;27.55;;
23737;SDS011;12049;51.068;3.688;2022-12-15T08:41:41;46.58;;;28.13;;
23737;SDS011;12049;51.068;3.688;2022-12-15T08:44:07;47.30;;;27.08;;
23737;SDS011;12049;51.068;3.688;2022-12-15T08:46:33;49.42;;;28.35;;
23737;SDS011;12049;51.068;3.688;2022-12-15T08:49:00;43.67;;;27.42;;
23737;SDS011;12049;51.068;3.688;2022-12-15T08:51:27;48.10;;;27.98;;
23737;SDS011;12049;51.068;3.688;2022-12-15T08:53:55;46.35;;;27.58;;
23737;SDS011;12049;51.068;3.688;2022-12-15T08:56:22;47.35;;;28.35;;
23737;SDS011;12049;51.068;3.688;2022-12-15T08:58:49;45.58;;;28.98;;
23737;SDS011;12049;51.068;3.688;2022-12-15T09:01:19;50.03;;;29.58;;
23737;SDS011;12049;51.068;3.688;2022-12-15T09:03:47;53.88;;;30.55;;
23737;SDS011;12049;51.068;3.688;2022-12-15T09:06:14;49.33;;;29.92;;
23737;SDS011;12049;51.068;3.688;2022-12-15T09:08:45;38.38;;;22.48;;
23737;SDS011;12049;51.068;3.688;2022-12-15T09:11:13;48.75;;;29.00;;
23737;SDS011;12049;51.068;3.688;2022-12-15T09:13:39;43.88;;;27.98;;
23737;SDS011;12049;51.068;3.688;2022-12-15T09:16:06;44.38;;;28.45;;
23737;SDS011;12049;51.068;3.688;2022-12-15T09:18:40;48.67;;;28.00;;
23737;SDS011;12049;51.068;3.688;2022-12-15T09:21:06;43.45;;;26.70;;
23737;SDS011;12049;51.068;3.688;2022-12-15T09:23:33;44.75;;;27.60;;
23737;SDS011;12049;51.068;3.688;2022-12-15T09:26:00;39.00;;;26.60;;
23737;SDS011;12049;51.068;3.688;2022-12-15T09:28:27;42.65;;;26.10;;
23737;SDS011;12049;51.068;3.688;2022-12-15T09:30:53;37.40;;;26.45;;
23737;SDS011;12049;51.068;3.688;2022-12-15T09:33:25;39.20;;;26.65;;
23737;SDS011;12049;51.068;3.688;2022-12-15T09:35:51;37.28;;;26.08;;
23737;SDS011;12049;51.068;3.688;2022-12-15T09:38:18;41.00;;;27.13;;
23737;SDS011;12049;51.068;3.688;2022-12-15T09:40:43;40.60;;;27.45;;
23737;SDS011;12049;51.068;3.688;2022-12-15T09:43:10;43.35;;;27.13;;
23737;SDS011;12049;51.068;3.688;2022-12-15T09:45:43;52.70;;;28.50;;
23737;SDS011;12049;51.068;3.688;2022-12-15T09:48:20;47.88;;;28.48;;
23737;SDS011;12049;51.068;3.688;2022-12-15T09:50:49;41.30;;;29.40;;
23737;SDS011;12049;51.068;3.688;2022-12-15T09:53:18;44.03;;;27.70;;
23737;SDS011;12049;51.068;3.688;2022-12-15T09:55:59;46.63;;;28.73;;
23737;SDS011;12049;51.068;3.688;2022-12-15T09:58:40;43.83;;;29.52;;
23737;SDS011;12049;51.068;3.688;2022-12-15T10:01:37;44.38;;;30.10;;
23737;SDS011;12049;51.068;3.688;2022-12-15T10:07:08;45.83;;;29.52;;
23737;SDS011;12049;51.068;3.688;2022-12-15T10:09:42;45.65;;;30.38;;
23737;SDS011;12049;51.068;3.688;2022-12-15T10:12:17;43.83;;;29.60;;
23737;SDS011;12049;51.068;3.688;2022-12-15T10:20:25;45.92;;;29.58;;
23737;SDS011;12049;51.068;3.688;2022-12-15T10:22:54;44.65;;;30.60;;
23737;SDS011;12049;51.068;3.688;2022-12-15T10:25:26;47.08;;;29.58;;
23737;SDS011;12049;51.068;3.688;2022-12-15T10:31:00;49.55;;;30.90;;
23737;SDS011;12049;51.068;3.688;2022-12-15T10:33:35;52.40;;;30.90;;
23737;SDS011;12049;51.068;3.688;2022-12-15T10:36:09;54.00;;;30.80;;
23737;SDS011;12049;51.068;3.688;2022-12-15T10:38:40;46.88;;;30.23;;
23737;SDS011;12049;51.068;3.688;2022-12-15T10:41:16;52.03;;;30.23;;
23737;SDS011;12049;51.068;3.688;2022-12-15T10:43:48;50.45;;;30.75;;
23737;SDS011;12049;51.068;3.688;2022-12-15T10:46:18;52.40;;;32.30;;
23737;SDS011;12049;51.068;3.688;2022-12-15T10:48:50;49.55;;;32.03;;
23737;SDS011;12049;51.068;3.688;2022-12-15T10:56:48;49.25;;;32.15;;
23737;SDS011;12049;51.068;3.688;2022-12-15T11:01:47;49.88;;;32.58;;
23737;SDS011;12049;51.068;3.688;2022-12-15T11:04:30;51.38;;;33.38;;
23737;SDS011;12049;51.068;3.688;2022-12-15T11:07:00;53.83;;;31.90;;
23737;SDS011;12049;51.068;3.688;2022-12-15T11:09:34;51.33;;;29.92;;
23737;SDS011;12049;51.068;3.688;2022-12-15T11:12:18;49.13;;;31.77;;
23737;SDS011;12049;51.068;3.688;2022-12-15T11:17:47;50.10;;;32.33;;
23737;SDS011;12049;51.068;3.688;2022-12-15T11:20:19;52.03;;;33.35;;
23737;SDS011;12049;51.068;3.688;2022-12-15T11:22:57;48.88;;;32.70;;
23737;SDS011;12049;51.068;3.688;2022-12-15T11:25:48;47.65;;;32.38;;
23737;SDS011;12049;51.068;3.688;2022-12-15T11:28:37;55.47;;;33.00;;
23737;SDS011;12049;51.068;3.688;2022-12-15T11:31:51;55.05;;;33.65;;
23737;SDS011;12049;51.068;3.688;2022-12-15T11:33:57;51.75;;;32.92;;
23737;SDS011;12049;51.068;3.688;2022-12-15T11:39:26;52.63;;;31.42;;
23737;SDS011;12049;51.068;3.688;2022-12-15T11:47:32;49.10;;;32.88;;
23737;SDS011;12049;51.068;3.688;2022-12-15T11:53:00;51.05;;;32.67;;
23737;SDS011;12049;51.068;3.688;2022-12-15T11:55:52;52.50;;;33.15;;
23737;SDS011;12049;51.068;3.688;2022-12-15T12:01:26;48.95;;;33.72;;
23737;SDS011;12049;51.068;3.688;2022-12-15T12:18:25;49.80;;;32.50;;
23737;SDS011;12049;51.068;3.688;2022-12-15T12:21:01;49.38;;;32.50;;
23737;SDS011;12049;51.068;3.688;2022-12-15T12:26:25;45.83;;;32.08;;
23737;SDS011;12049;51.068;3.688;2022-12-15T12:29:22;49.80;;;32.10;;
23737;SDS011;12049;51.068;3.688;2022-12-15T12:37:24;45.60;;;31.02;;
23737;SDS011;12049;51.068;3.688;2022-12-15T12:40:00;53.65;;;32.22;;
23737;SDS011;12049;51.068;3.688;2022-12-15T12:45:04;50.45;;;33.85;;
23737;SDS011;12049;51.068;3.688;2022-12-15T12:47:34;46.67;;;31.80;;
23737;SDS011;12049;51.068;3.688;2022-12-15T12:50:06;52.22;;;33.70;;
23737;SDS011;12049;51.068;3.688;2022-12-15T12:52:46;42.67;;;29.48;;
23737;SDS011;12049;51.068;3.688;2022-12-15T12:55:23;48.17;;;31.30;;
23737;SDS011;12049;51.068;3.688;2022-12-15T13:01:03;47.83;;;31.30;;
23737;SDS011;12049;51.068;3.688;2022-12-15T13:09:20;40.03;;;29.10;;
23737;SDS011;12049;51.068;3.688;2022-12-15T13:14:25;40.67;;;28.42;;
23737;SDS011;12049;51.068;3.688;2022-12-15T13:17:12;38.30;;;27.23;;
23737;SDS011;12049;51.068;3.688;2022-12-15T13:24:50;43.42;;;28.88;;
23737;SDS011;12049;51.068;3.688;2022-12-15T13:27:16;42.83;;;29.27;;
23737;SDS011;12049;51.068;3.688;2022-12-15T13:37:47;47.38;;;31.00;;
23737;SDS011;12049;51.068;3.688;2022-12-15T13:40:28;43.13;;;31.00;;
23737;SDS011;12049;51.068;3.688;2022-12-15T13:48:01;49.55;;;32.13;;
23737;SDS011;12049;51.068;3.688;2022-12-15T13:53:27;55.15;;;35.97;;
23737;SDS011;12049;51.068;3.688;2022-12-15T13:56:22;47.40;;;32.17;;
23737;SDS011;12049;51.068;3.688;2022-12-15T13:58:58;46.67;;;32.55;;
23737;SDS011;12049;51.068;3.688;2022-12-15T14:01:29;48.35;;;33.95;;
23737;SDS011;12049;51.068;3.688;2022-12-15T14:04:02;47.88;;;32.90;;
23737;SDS011;12049;51.068;3.688;2022-12-15T14:06:44;49.55;;;33.03;;
23737;SDS011;12049;51.068;3.688;2022-12-15T14:09:13;49.83;;;32.88;;
23737;SDS011;12049;51.068;3.688;2022-12-15T14:11:41;47.20;;;33.20;;
23737;SDS011;12049;51.068;3.688;2022-12-15T14:14:15;47.83;;;32.75;;
23737;SDS011;12049;51.068;3.688;2022-12-15T14:17:06;48.13;;;32.78;;
23737;SDS011;12049;51.068;3.688;2022-12-15T14:19:37;48.70;;;32.00;;
23737;SDS011;12049;51.068;3.688;2022-12-15T14:24:51;48.05;;;32.50;;
23737;SDS011;12049;51.068;3.688;2022-12-15T14:27:27;47.35;;;32.33;;
23737;SDS011;12049;51.068;3.688;2022-12-15T14:30:10;48.00;;;32.40;;
23737;SDS011;12049;51.068;3.688;2022-12-15T14:32:37;51.15;;;33.42;;
23737;SDS011;12049;51.068;3.688;2022-12-15T14:35:04;58.70;;;33.58;;
23737;SDS011;12049;51.068;3.688;2022-12-15T14:37:30;51.92;;;33.47;;
23737;SDS011;12049;51.068;3.688;2022-12-15T14:39:57;47.60;;;33.67;;
23737;SDS011;12049;51.068;3.688;2022-12-15T14:42:24;48.35;;;33.13;;
23737;SDS011;12049;51.068;3.688;2022-12-15T14:44:52;45.88;;;33.63;;
23737;SDS011;12049;51.068;3.688;2022-12-15T14:47:26;53.38;;;33.25;;
23737;SDS011;12049;51.068;3.688;2022-12-15T14:49:55;52.38;;;33.30;;
23737;SDS011;12049;51.068;3.688;2022-12-15T14:52:32;46.50;;;33.30;;
23737;SDS011;12049;51.068;3.688;2022-12-15T14:55:02;50.65;;;35.28;;
23737;SDS011;12049;51.068;3.688;2022-12-15T14:57:46;52.75;;;34.92;;
23737;SDS011;12049;51.068;3.688;2022-12-15T15:05:43;49.38;;;33.47;;
23737;SDS011;12049;51.068;3.688;2022-12-15T15:08:15;51.08;;;34.08;;
23737;SDS011;12049;51.068;3.688;2022-12-15T15:10:51;49.80;;;33.88;;
23737;SDS011;12049;51.068;3.688;2022-12-15T15:13:19;48.50;;;33.45;;
23737;SDS011;12049;51.068;3.688;2022-12-15T15:15:51;51.25;;;33.47;;
23737;SDS011;12049;51.068;3.688;2022-12-15T15:18:19;52.03;;;34.00;;
23737;SDS011;12049;51.068;3.688;2022-12-15T15:20:59;48.90;;;33.65;;
23737;SDS011;12049;51.068;3.688;2022-12-15T15:23:28;49.95;;;34.90;;
23737;SDS011;12049;51.068;3.688;2022-12-15T15:25:55;53.97;;;33.13;;
23737;SDS011;12049;51.068;3.688;2022-12-15T15:28:23;52.08;;;34.30;;
23737;SDS011;12049;51.068;3.688;2022-12-15T15:30:56;48.35;;;33.25;;
23737;SDS011;12049;51.068;3.688;2022-12-15T15:33:29;54.50;;;33.97;;
23737;SDS011;12049;51.068;3.688;2022-12-15T15:35:56;51.70;;;34.55;;
23737;SDS011;12049;51.068;3.688;2022-12-15T15:38:30;50.92;;;34.78;;
23737;SDS011;12049;51.068;3.688;2022-12-15T15:40:59;52.17;;;34.40;;
23737;SDS011;12049;51.068;3.688;2022-12-15T15:43:27;59.15;;;33.78;;
23737;SDS011;12049;51.068;3.688;2022-12-15T15:46:00;55.47;;;35.15;;
23737;SDS011;12049;51.068;3.688;2022-12-15T15:48:30;51.10;;;33.00;;
23737;SDS011;12049;51.068;3.688;2022-12-15T15:50:59;55.05;;;34.03;;
23737;SDS011;12049;51.068;3.688;2022-12-15T15:53:26;50.92;;;33.65;;
23737;SDS011;12049;51.068;3.688;2022-12-15T15:55:56;58.83;;;35.83;;
23737;SDS011;12049;51.068;3.688;2022-12-15T15:58:22;54.50;;;35.67;;
23737;SDS011;12049;51.068;3.688;2022-12-15T16:00:48;52.47;;;34.83;;
23737;SDS011;12049;51.068;3.688;2022-12-15T16:03:13;53.90;;;34.35;;
23737;SDS011;12049;51.068;3.688;2022-12-15T16:05:40;58.55;;;34.67;;
23737;SDS011;12049;51.068;3.688;2022-12-15T16:08:08;54.38;;;35.47;;
23737;SDS011;12049;51.068;3.688;2022-12-15T16:10:37;53.10;;;34.67;;
23737;SDS011;12049;51.068;3.688;2022-12-15T16:13:03;51.70;;;34.20;;
23737;SDS011;12049;51.068;3.688;2022-12-15T16:15:30;54.30;;;35.58;;
23737;SDS011;12049;51.068;3.688;2022-12-15T16:17:56;56.67;;;36.17;;
23737;SDS011;12049;51.068;3.688;2022-12-15T16:20:24;52.95;;;34.90;;
23737;SDS011;12049;51.068;3.688;2022-12-15T16:22:53;61.65;;;36.70;;
23737;SDS011;12049;51.068;3.688;2022-12-15T16:25:36;57.35;;;38.30;;
23737;SDS011;12049;51.068;3.688;2022-12-15T16:28:09;55.10;;;36.78;;
23737;SDS011;12049;51.068;3.688;2022-12-15T16:30:38;58.67;;;38.30;;
23737;SDS011;12049;51.068;3.688;2022-12-15T16:33:04;55.13;;;38.67;;
23737;SDS011;12049;51.068;3.688;2022-12-15T16:35:30;57.53;;;37.78;;
23737;SDS011;12049;51.068;3.688;2022-12-15T16:37:56;54.40;;;36.55;;
23737;SDS011;12049;51.068;3.688;2022-12-15T16:40:23;57.03;;;37.35;;
23737;SDS011;12049;51.068;3.688;2022-12-15T16:42:51;58.78;;;36.65;;
23737;SDS011;12049;51.068;3.688;2022-12-15T16:45:19;65.50;;;40.20;;
23737;SDS011;12049;51.068;3.688;2022-12-15T16:47:46;82.63;;;52.50;;
23737;SDS011;12049;51.068;3.688;2022-12-15T16:50:12;57.22;;;36.30;;
23737;SDS011;12049;51.068;3.688;2022-12-15T16:52:39;60.95;;;39.80;;
23737;SDS011;12049;51.068;3.688;2022-12-15T17:01:16;59.75;;;40.03;;